Hlavní strana
METAR-TAF:

METAR-TAF

Letiště :

Maputo, Mosambik

zeměpisná šířka: 25-55S, zeměpisná délka: 032-34E, výška: 39 m

Aktuální stav počasí

Zpráva byla vytvořena před 54 minutami, v 14:00 UTC
Východojihovýchodní vítr 10 kt
Teplota 29°C
Vlhkost vzduchu 58%
Tlak 1009 hPa
Viditelnost 10 km a více
Polojasno ve výšce 2500 ft

METAR: FQMA 151400Z 11010KT 9999 SCT025 29/20 Q1009 NOSIG

Čas: 16:54 (14:54 UTC)

Předpověď počasí

Zpráva byla vytvořena před 4 hodinami a 54 minutami, v 10:00 UTC
Předpověď platná od 15 v 12 UTC do 16 v 18 UTC
Severoseverozápadní vítr 12 kt
Viditelnost 10 km a více
Skoro jasno ve výšce 2000 ft
Změna
od 15 v 13 UTC do 15 v 15 UTC
Východní vítr 14 kt
Změna
od 15 v 18 UTC do 15 v 20 UTC
Jižní vítr 12 kt s nárazy do 24 kt
Změna
od 16 v 00 UTC do 16 v 02 UTC
Jihojihovýchodní vítr 12 kt
Polojasno ve výšce 2000 ft

TAF: FQMA 151000Z 1512/1618 34012KT 9999 FEW020 BECMG 1513/1515 09014KT BECMG 1518/1520 17012G24KT BECMG 1600/1602 16012KT SCT020 TX25/1513Z TN17/1603Z

Stav a předpovědi počasí z více než 4 000 letišť (zprávy METAR a TAF).

Červené a žluté tečky na mapě představují dostupné meteorologické stanice.

Když kurzor umístíte na tečku, zobrazí se název stanice.

Pak kliknutím zobrazíte stav a předpověď počasí.

Chcete-li změnit mapu, kliknutím na zelené tlačítko se znaménkem +mapu přiblížíte, kliknutím na zelené tlačítko se znaménkem – mapu oddálíte a kliknutím na zelené šipky přejdete na sousední mapy.


METAR-TAF: